www.wetter-lohne.de
Wetterdaten: aktuell Montag, 31.08.2026 18:35
Datum Zeit Temp. I. Temp. A. Boden 5cm Temp. A. min Temp. A. max Feuchte I. Feuchte A. Luftdruck Regen Wind Richtung Richtung Sonnenschein ET Solar Taupunkt Windchill Windböen Empfang
31.08.2026 18:35 24,7 °C 18,3 °C 17,2 °C 18,3 °C 18,3 °C 63 % 75 % 1008,6 hPa 0,0 mm 2,4 km/h (1 Bft) W-NW 292 ° 25 min 0,127 mm 106 W/m² 13,8 °C 18,3 °C 16,1 km/h (3 Bft) 99,08 %
31.08.2026 17:35 24,8 °C 17,2 °C 17,2 °C 16,8 °C 17,2 °C 62 % 85 % 1008,1 hPa 1,0 mm 0,0 km/h (0 Bft) W-SW 243 ° 15 min 0,026 mm 324 W/m² 14,7 °C 17,2 °C 0,0 km/h (0 Bft) 96,67 %
31.08.2026 16:35 24,8 °C 16,9 °C 16,7 °C 16,9 °C 17,4 °C 62 % 82 % 1007,6 hPa 1,4 mm 1,9 km/h (1 Bft) W-NW 283 ° 5 min 0,254 mm 29 W/m² 13,8 °C 16,9 °C 19,3 km/h (3 Bft) 95,00 %
31.08.2026 15:35 24,9 °C 21,1 °C 23,3 °C 21,0 °C 21,1 °C 62 % 72 % 1006,7 hPa 0,0 mm 1,4 km/h (1 Bft) S-SW 211 ° 45 min 0,228 mm 344 W/m² 15,8 °C 21,1 °C 9,7 km/h (2 Bft) 100,00 %
31.08.2026 14:35 24,7 °C 20,2 °C 21,7 °C 19,9 °C 20,2 °C 62 % 79 % 1006,7 hPa 2,0 mm 1,2 km/h (1 Bft) SW 227 ° 35 min 0,178 mm 349 W/m² 16,4 °C 20,2 °C 8,0 km/h (2 Bft) 95,93 %
31.08.2026 13:42 24,5 °C 18,1 °C 18,3 °C 18,1 °C 18,3 °C 62 % 82 % 1007,1 hPa 2,6 mm 0,0 km/h (0 Bft) N 0 ° 10 min 0,330 mm 167 W/m² 15,0 °C 18,1 °C 0,0 km/h (0 Bft) 100,00 %
31.08.2026 13:10 24,6 °C 22,4 °C 24,4 °C 22,2 °C 22,4 °C 62 % 63 % 1006,8 hPa 0,0 mm 2,9 km/h (1 Bft) W-SW 247 ° 40 min 0,330 mm 479 W/m² 15,0 °C 22,4 °C 17,7 km/h (3 Bft) 100,00 %
31.08.2026 12:10 24,4 °C 21,3 °C 23,9 °C 21,3 °C 21,4 °C 62 % 69 % 1007,2 hPa 0,0 mm 4,8 km/h (1 Bft) SW 217 ° 35 min 0,229 mm 609 W/m² 15,4 °C 21,3 °C 16,1 km/h (3 Bft) 98,21 %
31.08.2026 11:10 24,3 °C 20,4 °C 21,1 °C 20,4 °C 20,5 °C 62 % 73 % 1007,2 hPa 0,0 mm 1,9 km/h (1 Bft) S-SW 194 ° 15 min 0,178 mm 191 W/m² 15,4 °C 20,4 °C 17,7 km/h (3 Bft) 97,50 %
31.08.2026 10:10 24,2 °C 20,0 °C 21,1 °C 20,0 °C 20,2 °C 62 % 76 % 1007,4 hPa 0,0 mm 4,8 km/h (1 Bft) W-NW 283 ° 30 min 0,152 mm 232 W/m² 15,6 °C 20,0 °C 19,3 km/h (3 Bft) 95,37 %
31.08.2026 09:10 24,0 °C 19,9 °C 20,6 °C 19,8 °C 19,9 °C 63 % 76 % 1007,3 hPa 0,0 mm 0,1 km/h (0 Bft) SW 233 ° 40 min 0,102 mm 222 W/m² 15,5 °C 19,9 °C 3,2 km/h (1 Bft) 95,12 %
31.08.2026 08:10 23,6 °C 18,6 °C 17,8 °C 18,3 °C 18,6 °C 63 % 80 % 1007,1 hPa 0,0 mm 0,0 km/h (0 Bft) SW 225 ° 0 min 0,025 mm 100 W/m² 15,1 °C 18,6 °C 1,6 km/h (1 Bft) 99,17 %
31.08.2026 07:10 23,3 °C 17,7 °C 16,1 °C 17,7 °C 17,7 °C 63 % 82 % 1006,7 hPa 0,0 mm 0,7 km/h (0 Bft) S-SW 192 ° 0 min 0,000 mm 12 W/m² 14,6 °C 17,7 °C 11,3 km/h (2 Bft) 97,50 %
31.08.2026 06:10 23,4 °C 17,1 °C 15,0 °C 16,9 °C 17,1 °C 63 % 84 % 1006,9 hPa 0,0 mm 0,0 km/h (0 Bft) S 182 ° 0 min 0,000 mm 0 W/m² 14,4 °C 17,1 °C 0,0 km/h (0 Bft) 94,59 %
31.08.2026 05:10 23,5 °C 15,5 °C 13,9 °C 15,4 °C 15,5 °C 63 % 90 % 1007,2 hPa 0,0 mm 0,0 km/h (0 Bft) S-SO 148 ° 0 min 0,000 mm 0 W/m² 13,9 °C 15,5 °C 0,0 km/h (0 Bft) 99,17 %
31.08.2026 04:10 23,6 °C 16,3 °C 14,4 °C 16,2 °C 16,3 °C 63 % 88 % 1007,2 hPa 0,0 mm 0,0 km/h (0 Bft) S-SO 148 ° 0 min 0,000 mm 0 W/m² 14,3 °C 16,3 °C 0,0 km/h (0 Bft) 96,67 %
31.08.2026 03:10 23,6 °C 16,1 °C 14,4 °C 16,1 °C 16,2 °C 63 % 91 % 1008,0 hPa 0,0 mm 0,0 km/h (0 Bft) S 171 ° 0 min 0,000 mm 0 W/m² 14,6 °C 16,1 °C 0,0 km/h (0 Bft) 99,11 %
31.08.2026 02:10 23,8 °C 15,8 °C 12,8 °C 15,7 °C 15,8 °C 63 % 92 % 1008,2 hPa 0,0 mm 0,0 km/h (0 Bft) O 100 ° 0 min 0,000 mm 0 W/m² 14,5 °C 15,8 °C 0,0 km/h (0 Bft) 100,00 %
31.08.2026 01:10 23,9 °C 15,6 °C 13,3 °C 15,5 °C 15,6 °C 63 % 91 % 1008,8 hPa 0,0 mm 0,0 km/h (0 Bft) S-SW 198 ° 0 min 0,000 mm 0 W/m² 14,1 °C 15,6 °C 0,0 km/h (0 Bft) 97,22 %
31.08.2026 00:10 24,0 °C 16,5 °C 14,4 °C 16,5 °C 16,6 °C 63 % 91 % 1009,5 hPa 0,0 mm 0,0 km/h (0 Bft) S-SW 198 ° 0 min 0,000 mm 0 W/m² 15,0 °C 16,5 °C 0,0 km/h (0 Bft) 97,39 %
31.08.2026 00:00 24,0 °C 16,7 °C 14,4 °C 16,7 °C 16,7 °C 63 % 91 % 1009,4 hPa 0,0 mm 0,0 km/h (0 Bft) S-SW 198 ° 0 min 0,000 mm 0 W/m² 15,2 °C 16,7 °C 0,0 km/h (0 Bft) 100,00 %
_ Min-Zeit 06:40 01:50 01:25 01:50 01:45 09:25 12:50 07:00 - 00:00 - - - - - 01:45 01:45 00:00 10:20
Minimum _ 23,3 °C 14,9 °C 12,8 °C 14,9 °C 15,1 °C 62 % 63 % 1006,6 hPa - 0,0 km/h (0 Bft) - - - - - 13,5 °C 15,0 °C 0,0 km/h (0 Bft) 76,60 %
_ Max-Zeit 15:10 12:50 12:25 12:55 12:50 00:00 01:50 00:10 13:37 12:15 - - 14:15 13:00 15:00 14:15 12:50 11:50 00:00
Maximum _ 24,9 °C 22,6 °C 25,6 °C 22,4 °C 22,6 °C 63 % 92 % 1009,5 hPa 1,0 mm 7,0 km/h
SW (2 Bft)
- - 10 min 0,330 mm 847 W/m² 17,0 °C 22,6 °C 30,6 km/h
S-SW (5 Bft)
100,00 %
Durchschnitt _ 24,1 °C 18,2 °C 17,9 °C 18,2 °C 18,3 °C 63 % 81 % 1007,4 hPa #5,0 mm 1,1 km/h (0 Bft) S-SW - #4:45 h #1,829 mm 256 W/m² 14,9 °C 18,2 °C 7,6 km/h (2 Bft) 97,35 %
©2010 Thomas Mönnich